sensor_id;sensor_type;location;lat;lon;timestamp;temperature;humidity
22645;DHT22;11489;50.834;6.752;2023-07-13T00:01:37;15.10;54.20
22645;DHT22;11489;50.834;6.752;2023-07-13T00:04:04;15.00;54.40
22645;DHT22;11489;50.834;6.752;2023-07-13T00:06:30;15.00;54.70
22645;DHT22;11489;50.834;6.752;2023-07-13T00:08:59;14.90;54.80
22645;DHT22;11489;50.834;6.752;2023-07-13T00:11:25;14.80;55.00
22645;DHT22;11489;50.834;6.752;2023-07-13T00:13:51;14.80;55.20
22645;DHT22;11489;50.834;6.752;2023-07-13T00:16:16;14.80;55.30
22645;DHT22;11489;50.834;6.752;2023-07-13T00:18:44;14.80;55.50
22645;DHT22;11489;50.834;6.752;2023-07-13T00:21:11;14.70;55.60
22645;DHT22;11489;50.834;6.752;2023-07-13T00:23:39;14.70;55.70
22645;DHT22;11489;50.834;6.752;2023-07-13T00:26:08;14.70;55.90
22645;DHT22;11489;50.834;6.752;2023-07-13T00:28:34;14.70;56.10
22645;DHT22;11489;50.834;6.752;2023-07-13T00:31:01;14.60;56.10
22645;DHT22;11489;50.834;6.752;2023-07-13T00:33:28;14.60;56.20
22645;DHT22;11489;50.834;6.752;2023-07-13T00:35:55;14.60;56.30
22645;DHT22;11489;50.834;6.752;2023-07-13T00:38:22;14.50;56.40
22645;DHT22;11489;50.834;6.752;2023-07-13T00:40:48;14.50;56.40
22645;DHT22;11489;50.834;6.752;2023-07-13T00:43:20;14.50;56.50
22645;DHT22;11489;50.834;6.752;2023-07-13T00:48:14;14.40;56.70
22645;DHT22;11489;50.834;6.752;2023-07-13T00:50:41;14.40;56.90
22645;DHT22;11489;50.834;6.752;2023-07-13T00:53:08;14.40;56.90
22645;DHT22;11489;50.834;6.752;2023-07-13T00:55:35;14.30;57.00
22645;DHT22;11489;50.834;6.752;2023-07-13T00:58:02;14.30;57.10
22645;DHT22;11489;50.834;6.752;2023-07-13T01:00:29;14.20;57.20
22645;DHT22;11489;50.834;6.752;2023-07-13T01:02:56;14.20;57.50
22645;DHT22;11489;50.834;6.752;2023-07-13T01:05:22;14.20;57.90
22645;DHT22;11489;50.834;6.752;2023-07-13T01:07:51;14.10;57.60
22645;DHT22;11489;50.834;6.752;2023-07-13T01:10:21;14.10;57.80
22645;DHT22;11489;50.834;6.752;2023-07-13T01:12:47;14.10;58.10
22645;DHT22;11489;50.834;6.752;2023-07-13T01:15:36;14.00;57.90
22645;DHT22;11489;50.834;6.752;2023-07-13T01:18:04;14.00;59.10
22645;DHT22;11489;50.834;6.752;2023-07-13T01:20:30;13.90;58.10
22645;DHT22;11489;50.834;6.752;2023-07-13T01:22:58;13.90;58.20
22645;DHT22;11489;50.834;6.752;2023-07-13T01:25:25;13.90;58.50
22645;DHT22;11489;50.834;6.752;2023-07-13T01:27:50;13.80;58.50
22645;DHT22;11489;50.834;6.752;2023-07-13T01:30:16;13.80;58.70
22645;DHT22;11489;50.834;6.752;2023-07-13T01:32:42;13.80;58.80
22645;DHT22;11489;50.834;6.752;2023-07-13T01:35:08;13.80;58.90
22645;DHT22;11489;50.834;6.752;2023-07-13T01:37:33;13.80;59.00
22645;DHT22;11489;50.834;6.752;2023-07-13T01:40:02;13.80;59.10
22645;DHT22;11489;50.834;6.752;2023-07-13T01:42:30;13.80;59.20
22645;DHT22;11489;50.834;6.752;2023-07-13T01:44:55;13.80;59.20
22645;DHT22;11489;50.834;6.752;2023-07-13T01:47:22;13.80;59.30
22645;DHT22;11489;50.834;6.752;2023-07-13T01:49:49;13.80;59.50
22645;DHT22;11489;50.834;6.752;2023-07-13T01:52:16;13.80;59.50
22645;DHT22;11489;50.834;6.752;2023-07-13T01:54:41;13.80;59.60
22645;DHT22;11489;50.834;6.752;2023-07-13T01:57:07;13.70;59.60
22645;DHT22;11489;50.834;6.752;2023-07-13T01:59:33;13.70;59.70
22645;DHT22;11489;50.834;6.752;2023-07-13T02:01:58;13.70;59.80
22645;DHT22;11489;50.834;6.752;2023-07-13T02:04:24;13.60;59.80
22645;DHT22;11489;50.834;6.752;2023-07-13T02:06:50;13.60;59.90
22645;DHT22;11489;50.834;6.752;2023-07-13T02:09:16;13.60;60.00
22645;DHT22;11489;50.834;6.752;2023-07-13T02:11:42;13.60;60.10
22645;DHT22;11489;50.834;6.752;2023-07-13T02:14:07;13.60;60.20
22645;DHT22;11489;50.834;6.752;2023-07-13T02:16:33;13.50;60.20
22645;DHT22;11489;50.834;6.752;2023-07-13T02:18:58;13.60;60.30
22645;DHT22;11489;50.834;6.752;2023-07-13T02:21:26;13.60;60.40
22645;DHT22;11489;50.834;6.752;2023-07-13T02:23:52;13.50;60.40
22645;DHT22;11489;50.834;6.752;2023-07-13T02:26:18;13.50;60.50
22645;DHT22;11489;50.834;6.752;2023-07-13T02:28:44;13.50;60.60
22645;DHT22;11489;50.834;6.752;2023-07-13T02:31:12;13.50;60.70
22645;DHT22;11489;50.834;6.752;2023-07-13T02:33:38;13.50;60.90
22645;DHT22;11489;50.834;6.752;2023-07-13T02:36:04;13.50;60.90
22645;DHT22;11489;50.834;6.752;2023-07-13T02:38:32;13.50;61.00
22645;DHT22;11489;50.834;6.752;2023-07-13T02:40:59;13.50;61.00
22645;DHT22;11489;50.834;6.752;2023-07-13T02:43:25;13.50;61.10
22645;DHT22;11489;50.834;6.752;2023-07-13T02:45:51;13.50;61.10
22645;DHT22;11489;50.834;6.752;2023-07-13T02:48:17;13.50;61.20
22645;DHT22;11489;50.834;6.752;2023-07-13T02:50:44;13.50;61.30
22645;DHT22;11489;50.834;6.752;2023-07-13T02:53:10;13.50;61.50
22645;DHT22;11489;50.834;6.752;2023-07-13T02:55:37;13.50;61.50
22645;DHT22;11489;50.834;6.752;2023-07-13T02:58:02;13.50;61.60
22645;DHT22;11489;50.834;6.752;2023-07-13T03:00:29;13.50;61.50
22645;DHT22;11489;50.834;6.752;2023-07-13T03:02:55;13.50;61.50
22645;DHT22;11489;50.834;6.752;2023-07-13T03:05:23;13.50;61.50
22645;DHT22;11489;50.834;6.752;2023-07-13T03:07:49;13.40;61.50
22645;DHT22;11489;50.834;6.752;2023-07-13T03:10:15;13.40;61.50
22645;DHT22;11489;50.834;6.752;2023-07-13T03:12:42;13.40;61.70
22645;DHT22;11489;50.834;6.752;2023-07-13T03:15:08;13.40;61.80
22645;DHT22;11489;50.834;6.752;2023-07-13T03:17:33;13.40;61.90
22645;DHT22;11489;50.834;6.752;2023-07-13T03:19:59;13.30;62.00
22645;DHT22;11489;50.834;6.752;2023-07-13T03:22:25;13.40;62.10
22645;DHT22;11489;50.834;6.752;2023-07-13T03:24:50;13.40;62.20
22645;DHT22;11489;50.834;6.752;2023-07-13T03:27:17;13.30;62.20
22645;DHT22;11489;50.834;6.752;2023-07-13T03:29:43;13.30;62.30
22645;DHT22;11489;50.834;6.752;2023-07-13T03:32:09;13.40;62.40
22645;DHT22;11489;50.834;6.752;2023-07-13T03:34:35;13.40;62.60
22645;DHT22;11489;50.834;6.752;2023-07-13T03:37:00;13.40;62.60
22645;DHT22;11489;50.834;6.752;2023-07-13T03:39:26;13.40;62.70
22645;DHT22;11489;50.834;6.752;2023-07-13T03:41:52;13.40;63.50
22645;DHT22;11489;50.834;6.752;2023-07-13T03:44:18;13.40;62.90
22645;DHT22;11489;50.834;6.752;2023-07-13T03:46:44;13.40;63.00
22645;DHT22;11489;50.834;6.752;2023-07-13T03:49:10;13.40;63.10
22645;DHT22;11489;50.834;6.752;2023-07-13T03:51:36;13.40;63.20
22645;DHT22;11489;50.834;6.752;2023-07-13T03:54:02;13.50;63.50
22645;DHT22;11489;50.834;6.752;2023-07-13T03:56:29;13.50;63.70
22645;DHT22;11489;50.834;6.752;2023-07-13T03:58:56;13.60;63.90
22645;DHT22;11489;50.834;6.752;2023-07-13T04:01:23;13.60;63.90
22645;DHT22;11489;50.834;6.752;2023-07-13T04:03:51;13.70;64.00
22645;DHT22;11489;50.834;6.752;2023-07-13T04:06:22;13.70;63.90
22645;DHT22;11489;50.834;6.752;2023-07-13T04:08:54;13.80;64.30
22645;DHT22;11489;50.834;6.752;2023-07-13T04:11:23;13.90;64.50
22645;DHT22;11489;50.834;6.752;2023-07-13T04:13:49;14.00;64.50
22645;DHT22;11489;50.834;6.752;2023-07-13T04:16:16;14.10;64.90
22645;DHT22;11489;50.834;6.752;2023-07-13T04:18:43;14.30;65.10
22645;DHT22;11489;50.834;6.752;2023-07-13T04:21:09;14.50;65.30
22645;DHT22;11489;50.834;6.752;2023-07-13T04:23:35;14.80;65.40
22645;DHT22;11489;50.834;6.752;2023-07-13T04:26:01;15.00;65.30
22645;DHT22;11489;50.834;6.752;2023-07-13T04:28:27;15.30;65.20
22645;DHT22;11489;50.834;6.752;2023-07-13T04:30:53;15.60;65.10
22645;DHT22;11489;50.834;6.752;2023-07-13T04:33:19;15.90;64.90
22645;DHT22;11489;50.834;6.752;2023-07-13T04:35:51;16.10;64.40
22645;DHT22;11489;50.834;6.752;2023-07-13T04:38:27;16.30;63.60
22645;DHT22;11489;50.834;6.752;2023-07-13T04:40:56;16.50;62.90
22645;DHT22;11489;50.834;6.752;2023-07-13T04:43:22;16.60;62.20
22645;DHT22;11489;50.834;6.752;2023-07-13T04:45:48;16.60;61.80
22645;DHT22;11489;50.834;6.752;2023-07-13T04:48:14;16.60;61.50
22645;DHT22;11489;50.834;6.752;2023-07-13T04:50:40;16.70;61.30
22645;DHT22;11489;50.834;6.752;2023-07-13T04:53:05;16.70;61.20
22645;DHT22;11489;50.834;6.752;2023-07-13T04:55:32;16.70;61.10
22645;DHT22;11489;50.834;6.752;2023-07-13T04:57:57;16.70;61.00
22645;DHT22;11489;50.834;6.752;2023-07-13T05:00:27;16.70;60.90
22645;DHT22;11489;50.834;6.752;2023-07-13T05:02:57;16.70;61.00
22645;DHT22;11489;50.834;6.752;2023-07-13T05:05:25;16.70;60.90
22645;DHT22;11489;50.834;6.752;2023-07-13T05:07:51;16.70;60.90
22645;DHT22;11489;50.834;6.752;2023-07-13T05:10:16;16.70;60.90
22645;DHT22;11489;50.834;6.752;2023-07-13T05:12:42;16.60;60.90
22645;DHT22;11489;50.834;6.752;2023-07-13T05:15:10;16.60;60.90
22645;DHT22;11489;50.834;6.752;2023-07-13T05:17:36;16.70;61.10
22645;DHT22;11489;50.834;6.752;2023-07-13T05:20:05;16.60;61.00
22645;DHT22;11489;50.834;6.752;2023-07-13T05:22:31;16.60;61.10
22645;DHT22;11489;50.834;6.752;2023-07-13T05:24:57;16.70;61.30
22645;DHT22;11489;50.834;6.752;2023-07-13T05:27:22;16.70;61.40
22645;DHT22;11489;50.834;6.752;2023-07-13T05:29:49;16.70;61.50
22645;DHT22;11489;50.834;6.752;2023-07-13T05:32:15;16.80;61.80
22645;DHT22;11489;50.834;6.752;2023-07-13T05:34:40;16.80;62.00
22645;DHT22;11489;50.834;6.752;2023-07-13T05:37:08;16.90;62.10
22645;DHT22;11489;50.834;6.752;2023-07-13T05:39:34;17.00;62.10
22645;DHT22;11489;50.834;6.752;2023-07-13T05:42:01;17.10;62.20
22645;DHT22;11489;50.834;6.752;2023-07-13T05:44:27;17.20;62.20
22645;DHT22;11489;50.834;6.752;2023-07-13T05:46:52;17.30;62.20
22645;DHT22;11489;50.834;6.752;2023-07-13T05:49:18;17.50;62.10
22645;DHT22;11489;50.834;6.752;2023-07-13T05:51:44;17.60;62.70
22645;DHT22;11489;50.834;6.752;2023-07-13T05:54:09;17.70;61.90
22645;DHT22;11489;50.834;6.752;2023-07-13T05:56:35;17.80;61.80
22645;DHT22;11489;50.834;6.752;2023-07-13T05:59:01;18.00;61.70
22645;DHT22;11489;50.834;6.752;2023-07-13T06:01:26;18.10;61.60
22645;DHT22;11489;50.834;6.752;2023-07-13T06:03:52;18.20;61.50
22645;DHT22;11489;50.834;6.752;2023-07-13T06:06:18;18.30;61.20
22645;DHT22;11489;50.834;6.752;2023-07-13T06:08:43;18.40;61.00
22645;DHT22;11489;50.834;6.752;2023-07-13T06:11:21;18.40;60.80
22645;DHT22;11489;50.834;6.752;2023-07-13T06:13:47;18.50;60.70
22645;DHT22;11489;50.834;6.752;2023-07-13T06:16:13;18.50;60.30
22645;DHT22;11489;50.834;6.752;2023-07-13T06:18:40;18.60;60.30
22645;DHT22;11489;50.834;6.752;2023-07-13T06:21:08;18.60;60.30
22645;DHT22;11489;50.834;6.752;2023-07-13T06:23:33;18.70;60.30
22645;DHT22;11489;50.834;6.752;2023-07-13T06:25:59;18.70;60.40
22645;DHT22;11489;50.834;6.752;2023-07-13T06:28:25;18.80;60.30
22645;DHT22;11489;50.834;6.752;2023-07-13T06:30:50;18.90;60.20
22645;DHT22;11489;50.834;6.752;2023-07-13T06:33:16;18.90;60.00
22645;DHT22;11489;50.834;6.752;2023-07-13T06:35:42;18.90;59.80
22645;DHT22;11489;50.834;6.752;2023-07-13T06:38:08;18.90;59.60
22645;DHT22;11489;50.834;6.752;2023-07-13T06:40:33;18.90;59.60
22645;DHT22;11489;50.834;6.752;2023-07-13T06:42:59;18.90;59.60
22645;DHT22;11489;50.834;6.752;2023-07-13T06:45:25;18.90;59.70
22645;DHT22;11489;50.834;6.752;2023-07-13T06:47:50;18.90;59.70
22645;DHT22;11489;50.834;6.752;2023-07-13T06:50:16;18.90;59.80
22645;DHT22;11489;50.834;6.752;2023-07-13T06:52:42;19.00;59.90
22645;DHT22;11489;50.834;6.752;2023-07-13T06:55:08;19.00;59.80
22645;DHT22;11489;50.834;6.752;2023-07-13T06:57:34;19.00;59.70
22645;DHT22;11489;50.834;6.752;2023-07-13T06:59:59;19.10;59.50
22645;DHT22;11489;50.834;6.752;2023-07-13T07:02:25;19.10;59.30
22645;DHT22;11489;50.834;6.752;2023-07-13T07:04:50;19.10;59.20
22645;DHT22;11489;50.834;6.752;2023-07-13T07:07:16;19.10;59.20
22645;DHT22;11489;50.834;6.752;2023-07-13T07:09:42;19.10;59.30
22645;DHT22;11489;50.834;6.752;2023-07-13T07:12:08;19.10;59.30
22645;DHT22;11489;50.834;6.752;2023-07-13T07:14:33;19.10;59.30
22645;DHT22;11489;50.834;6.752;2023-07-13T07:17:00;19.20;59.50
22645;DHT22;11489;50.834;6.752;2023-07-13T07:19:29;19.20;59.60
22645;DHT22;11489;50.834;6.752;2023-07-13T07:21:55;19.30;59.70
22645;DHT22;11489;50.834;6.752;2023-07-13T07:24:20;19.30;59.80
22645;DHT22;11489;50.834;6.752;2023-07-13T07:26:46;19.40;59.90
22645;DHT22;11489;50.834;6.752;2023-07-13T07:29:11;19.60;59.80
22645;DHT22;11489;50.834;6.752;2023-07-13T07:31:37;19.70;59.90
22645;DHT22;11489;50.834;6.752;2023-07-13T07:34:03;19.90;59.90
22645;DHT22;11489;50.834;6.752;2023-07-13T07:36:28;20.00;59.70
22645;DHT22;11489;50.834;6.752;2023-07-13T07:38:54;20.20;60.20
22645;DHT22;11489;50.834;6.752;2023-07-13T07:41:20;20.40;59.30
22645;DHT22;11489;50.834;6.752;2023-07-13T07:43:45;20.50;58.90
22645;DHT22;11489;50.834;6.752;2023-07-13T07:46:11;20.60;58.70
22645;DHT22;11489;50.834;6.752;2023-07-13T07:48:37;20.70;58.60
22645;DHT22;11489;50.834;6.752;2023-07-13T07:51:02;20.90;58.50
22645;DHT22;11489;50.834;6.752;2023-07-13T07:53:28;21.00;58.60
22645;DHT22;11489;50.834;6.752;2023-07-13T07:55:54;21.20;58.50
22645;DHT22;11489;50.834;6.752;2023-07-13T07:58:19;21.40;58.20
22645;DHT22;11489;50.834;6.752;2023-07-13T08:00:45;21.60;58.10
22645;DHT22;11489;50.834;6.752;2023-07-13T08:03:10;21.80;57.90
22645;DHT22;11489;50.834;6.752;2023-07-13T08:05:36;22.10;57.70
22645;DHT22;11489;50.834;6.752;2023-07-13T08:08:03;22.20;57.20
22645;DHT22;11489;50.834;6.752;2023-07-13T08:10:28;22.40;56.80
22645;DHT22;11489;50.834;6.752;2023-07-13T08:12:54;22.60;56.60
22645;DHT22;11489;50.834;6.752;2023-07-13T08:15:20;22.70;55.80
22645;DHT22;11489;50.834;6.752;2023-07-13T08:17:47;22.80;55.50
22645;DHT22;11489;50.834;6.752;2023-07-13T08:20:13;22.90;55.30
22645;DHT22;11489;50.834;6.752;2023-07-13T08:22:39;23.00;54.90
22645;DHT22;11489;50.834;6.752;2023-07-13T08:25:07;23.10;54.70
22645;DHT22;11489;50.834;6.752;2023-07-13T08:27:33;23.20;54.50
22645;DHT22;11489;50.834;6.752;2023-07-13T08:29:58;23.30;54.60
22645;DHT22;11489;50.834;6.752;2023-07-13T08:32:24;23.40;54.10
22645;DHT22;11489;50.834;6.752;2023-07-13T08:34:51;23.50;53.70
22645;DHT22;11489;50.834;6.752;2023-07-13T08:37:18;23.50;53.40
22645;DHT22;11489;50.834;6.752;2023-07-13T08:39:45;23.50;53.20
22645;DHT22;11489;50.834;6.752;2023-07-13T08:42:33;23.50;53.30
22645;DHT22;11489;50.834;6.752;2023-07-13T08:48:13;23.60;53.00
22645;DHT22;11489;50.834;6.752;2023-07-13T08:50:49;23.80;53.20
22645;DHT22;11489;50.834;6.752;2023-07-13T08:53:17;23.90;53.00
22645;DHT22;11489;50.834;6.752;2023-07-13T08:55:44;24.00;53.40
22645;DHT22;11489;50.834;6.752;2023-07-13T08:58:15;24.10;53.10
22645;DHT22;11489;50.834;6.752;2023-07-13T09:00:52;24.20;52.20
22645;DHT22;11489;50.834;6.752;2023-07-13T09:03:23;24.30;52.20
22645;DHT22;11489;50.834;6.752;2023-07-13T09:05:54;24.30;52.60
22645;DHT22;11489;50.834;6.752;2023-07-13T09:08:55;24.20;51.30
22645;DHT22;11489;50.834;6.752;2023-07-13T09:11:36;24.20;50.90
22645;DHT22;11489;50.834;6.752;2023-07-13T09:14:34;24.10;50.80
22645;DHT22;11489;50.834;6.752;2023-07-13T09:17:07;24.00;50.90
22645;DHT22;11489;50.834;6.752;2023-07-13T09:19:36;24.00;51.40
22645;DHT22;11489;50.834;6.752;2023-07-13T09:22:03;24.00;51.60
22645;DHT22;11489;50.834;6.752;2023-07-13T09:24:41;24.00;51.40
22645;DHT22;11489;50.834;6.752;2023-07-13T09:27:23;24.10;51.10
22645;DHT22;11489;50.834;6.752;2023-07-13T09:32:49;24.20;50.70
22645;DHT22;11489;50.834;6.752;2023-07-13T09:35:19;24.30;50.50
22645;DHT22;11489;50.834;6.752;2023-07-13T09:37:45;24.30;50.70
22645;DHT22;11489;50.834;6.752;2023-07-13T09:40:20;24.30;50.40
22645;DHT22;11489;50.834;6.752;2023-07-13T09:42:48;24.40;49.90
22645;DHT22;11489;50.834;6.752;2023-07-13T09:45:27;24.30;49.80
22645;DHT22;11489;50.834;6.752;2023-07-13T09:47:59;24.30;49.80
22645;DHT22;11489;50.834;6.752;2023-07-13T09:50:25;24.30;49.90
22645;DHT22;11489;50.834;6.752;2023-07-13T09:52:51;24.30;50.00
22645;DHT22;11489;50.834;6.752;2023-07-13T09:55:36;24.40;49.80
22645;DHT22;11489;50.834;6.752;2023-07-13T09:58:10;24.40;49.10
22645;DHT22;11489;50.834;6.752;2023-07-13T10:00:37;24.30;48.80
22645;DHT22;11489;50.834;6.752;2023-07-13T10:05:45;24.30;48.90
22645;DHT22;11489;50.834;6.752;2023-07-13T10:10:52;24.30;48.90
22645;DHT22;11489;50.834;6.752;2023-07-13T10:13:32;24.40;48.90
22645;DHT22;11489;50.834;6.752;2023-07-13T10:16:00;24.50;48.50
22645;DHT22;11489;50.834;6.752;2023-07-13T10:18:27;24.50;48.60
22645;DHT22;11489;50.834;6.752;2023-07-13T10:21:00;24.40;48.20
22645;DHT22;11489;50.834;6.752;2023-07-13T10:23:34;24.50;48.00
22645;DHT22;11489;50.834;6.752;2023-07-13T10:26:00;24.50;48.40
22645;DHT22;11489;50.834;6.752;2023-07-13T10:28:31;24.60;48.60
22645;DHT22;11489;50.834;6.752;2023-07-13T10:31:00;24.60;48.40
22645;DHT22;11489;50.834;6.752;2023-07-13T10:33:26;24.70;48.30
22645;DHT22;11489;50.834;6.752;2023-07-13T10:36:07;24.80;48.30
22645;DHT22;11489;50.834;6.752;2023-07-13T10:38:38;25.00;48.00
22645;DHT22;11489;50.834;6.752;2023-07-13T10:41:07;25.10;47.90
22645;DHT22;11489;50.834;6.752;2023-07-13T10:43:39;25.20;48.40
22645;DHT22;11489;50.834;6.752;2023-07-13T10:46:09;25.20;47.50
22645;DHT22;11489;50.834;6.752;2023-07-13T10:48:36;25.30;47.20
22645;DHT22;11489;50.834;6.752;2023-07-13T10:51:06;25.40;47.20
22645;DHT22;11489;50.834;6.752;2023-07-13T10:53:35;25.40;47.00
22645;DHT22;11489;50.834;6.752;2023-07-13T10:56:18;25.40;46.80
22645;DHT22;11489;50.834;6.752;2023-07-13T10:58:45;25.50;46.80
22645;DHT22;11489;50.834;6.752;2023-07-13T11:01:20;25.50;47.00
22645;DHT22;11489;50.834;6.752;2023-07-13T11:04:11;25.60;46.40
22645;DHT22;11489;50.834;6.752;2023-07-13T11:06:39;25.60;46.30
22645;DHT22;11489;50.834;6.752;2023-07-13T11:09:37;25.50;46.00
22645;DHT22;11489;50.834;6.752;2023-07-13T11:12:28;25.50;46.00
22645;DHT22;11489;50.834;6.752;2023-07-13T11:17:47;25.50;46.30
22645;DHT22;11489;50.834;6.752;2023-07-13T11:23:07;25.40;46.00
22645;DHT22;11489;50.834;6.752;2023-07-13T11:25:35;25.40;45.00
22645;DHT22;11489;50.834;6.752;2023-07-13T11:31:34;25.20;45.40
22645;DHT22;11489;50.834;6.752;2023-07-13T11:36:17;25.10;45.90
22645;DHT22;11489;50.834;6.752;2023-07-13T11:39:09;25.10;45.60
22645;DHT22;11489;50.834;6.752;2023-07-13T11:41:55;25.00;45.50
22645;DHT22;11489;50.834;6.752;2023-07-13T11:44:34;25.00;45.40
22645;DHT22;11489;50.834;6.752;2023-07-13T11:47:20;25.00;45.70
22645;DHT22;11489;50.834;6.752;2023-07-13T11:49:54;24.90;45.10
22645;DHT22;11489;50.834;6.752;2023-07-13T11:52:40;24.70;45.20
22645;DHT22;11489;50.834;6.752;2023-07-13T11:55:17;24.60;45.00
22645;DHT22;11489;50.834;6.752;2023-07-13T11:57:51;24.40;45.10
22645;DHT22;11489;50.834;6.752;2023-07-13T12:00:26;24.30;45.30
22645;DHT22;11489;50.834;6.752;2023-07-13T12:03:00;24.10;45.60
22645;DHT22;11489;50.834;6.752;2023-07-13T12:05:30;24.00;45.90
22645;DHT22;11489;50.834;6.752;2023-07-13T12:08:22;24.00;46.30
22645;DHT22;11489;50.834;6.752;2023-07-13T12:11:00;23.90;46.10
22645;DHT22;11489;50.834;6.752;2023-07-13T12:13:39;23.90;46.10
22645;DHT22;11489;50.834;6.752;2023-07-13T12:16:29;23.90;46.20
22645;DHT22;11489;50.834;6.752;2023-07-13T12:19:09;24.00;46.00
22645;DHT22;11489;50.834;6.752;2023-07-13T12:21:46;24.00;46.20
22645;DHT22;11489;50.834;6.752;2023-07-13T12:24:20;24.00;46.20
22645;DHT22;11489;50.834;6.752;2023-07-13T12:30:01;24.00;45.80
22645;DHT22;11489;50.834;6.752;2023-07-13T12:32:33;24.00;45.90
22645;DHT22;11489;50.834;6.752;2023-07-13T12:35:14;24.00;45.80
22645;DHT22;11489;50.834;6.752;2023-07-13T12:37:44;24.00;45.30
22645;DHT22;11489;50.834;6.752;2023-07-13T12:40:19;24.00;45.50
22645;DHT22;11489;50.834;6.752;2023-07-13T12:42:49;24.00;45.70
22645;DHT22;11489;50.834;6.752;2023-07-13T12:45:23;24.00;45.80
22645;DHT22;11489;50.834;6.752;2023-07-13T12:47:55;24.00;45.50
22645;DHT22;11489;50.834;6.752;2023-07-13T12:50:30;24.00;45.50
22645;DHT22;11489;50.834;6.752;2023-07-13T12:53:01;24.10;45.50
22645;DHT22;11489;50.834;6.752;2023-07-13T12:55:29;24.10;45.60
22645;DHT22;11489;50.834;6.752;2023-07-13T12:57:59;24.10;45.60
22645;DHT22;11489;50.834;6.752;2023-07-13T13:00:33;24.20;45.50
22645;DHT22;11489;50.834;6.752;2023-07-13T13:03:19;24.30;45.40
22645;DHT22;11489;50.834;6.752;2023-07-13T13:05:46;24.40;45.70
22645;DHT22;11489;50.834;6.752;2023-07-13T13:08:12;24.60;45.90
22645;DHT22;11489;50.834;6.752;2023-07-13T13:10:38;24.90;45.70
22645;DHT22;11489;50.834;6.752;2023-07-13T13:13:04;25.10;45.20
22645;DHT22;11489;50.834;6.752;2023-07-13T13:15:30;25.20;44.90
22645;DHT22;11489;50.834;6.752;2023-07-13T13:17:56;25.40;44.60
22645;DHT22;11489;50.834;6.752;2023-07-13T13:20:24;25.60;44.60
22645;DHT22;11489;50.834;6.752;2023-07-13T13:22:51;25.70;44.70
22645;DHT22;11489;50.834;6.752;2023-07-13T13:25:18;26.00;44.60
22645;DHT22;11489;50.834;6.752;2023-07-13T13:27:45;26.20;44.10
22645;DHT22;11489;50.834;6.752;2023-07-13T13:30:16;26.30;43.70
22645;DHT22;11489;50.834;6.752;2023-07-13T13:32:44;26.50;43.60
22645;DHT22;11489;50.834;6.752;2023-07-13T13:35:15;26.60;43.70
22645;DHT22;11489;50.834;6.752;2023-07-13T13:37:41;26.70;43.10
22645;DHT22;11489;50.834;6.752;2023-07-13T13:40:15;26.80;43.20
22645;DHT22;11489;50.834;6.752;2023-07-13T13:42:41;27.00;42.50
22645;DHT22;11489;50.834;6.752;2023-07-13T13:45:09;27.10;42.80
22645;DHT22;11489;50.834;6.752;2023-07-13T13:47:36;27.10;42.00
22645;DHT22;11489;50.834;6.752;2023-07-13T13:50:12;27.20;42.00
22645;DHT22;11489;50.834;6.752;2023-07-13T13:52:38;27.20;41.40
22645;DHT22;11489;50.834;6.752;2023-07-13T13:55:15;27.20;41.70
22645;DHT22;11489;50.834;6.752;2023-07-13T13:57:41;27.20;41.10
22645;DHT22;11489;50.834;6.752;2023-07-13T14:00:11;27.20;41.40
22645;DHT22;11489;50.834;6.752;2023-07-13T14:02:41;27.10;40.90
22645;DHT22;11489;50.834;6.752;2023-07-13T14:05:13;27.10;40.90
22645;DHT22;11489;50.834;6.752;2023-07-13T14:07:38;27.00;40.90
22645;DHT22;11489;50.834;6.752;2023-07-13T14:10:16;27.10;41.10
22645;DHT22;11489;50.834;6.752;2023-07-13T14:12:44;27.10;40.80
22645;DHT22;11489;50.834;6.752;2023-07-13T14:17:48;27.10;40.40
22645;DHT22;11489;50.834;6.752;2023-07-13T14:20:16;27.10;40.80
22645;DHT22;11489;50.834;6.752;2023-07-13T14:22:42;27.10;40.80
22645;DHT22;11489;50.834;6.752;2023-07-13T14:25:14;27.20;40.80
22645;DHT22;11489;50.834;6.752;2023-07-13T14:27:42;27.20;40.40
22645;DHT22;11489;50.834;6.752;2023-07-13T14:30:20;27.30;40.50
22645;DHT22;11489;50.834;6.752;2023-07-13T14:32:46;27.30;39.90
22645;DHT22;11489;50.834;6.752;2023-07-13T14:35:14;27.40;40.40
22645;DHT22;11489;50.834;6.752;2023-07-13T14:37:42;27.50;40.20
22645;DHT22;11489;50.834;6.752;2023-07-13T14:40:16;27.60;40.10
22645;DHT22;11489;50.834;6.752;2023-07-13T14:42:43;27.80;39.90
22645;DHT22;11489;50.834;6.752;2023-07-13T14:45:15;27.90;40.00
22645;DHT22;11489;50.834;6.752;2023-07-13T14:47:42;28.00;39.30
22645;DHT22;11489;50.834;6.752;2023-07-13T14:50:20;28.00;39.20
22645;DHT22;11489;50.834;6.752;2023-07-13T14:52:47;28.00;38.90
22645;DHT22;11489;50.834;6.752;2023-07-13T14:55:15;28.00;39.20
22645;DHT22;11489;50.834;6.752;2023-07-13T14:57:41;28.00;39.00
22645;DHT22;11489;50.834;6.752;2023-07-13T15:02:39;27.80;38.50
22645;DHT22;11489;50.834;6.752;2023-07-13T15:05:22;27.70;39.00
22645;DHT22;11489;50.834;6.752;2023-07-13T15:07:50;27.70;38.60
22645;DHT22;11489;50.834;6.752;2023-07-13T15:10:18;27.80;39.10
22645;DHT22;11489;50.834;6.752;2023-07-13T15:12:45;27.80;39.00
22645;DHT22;11489;50.834;6.752;2023-07-13T15:15:11;27.80;38.90
22645;DHT22;11489;50.834;6.752;2023-07-13T15:17:39;27.70;38.50
22645;DHT22;11489;50.834;6.752;2023-07-13T15:22:40;27.40;38.30
22645;DHT22;11489;50.834;6.752;2023-07-13T15:25:18;27.30;38.70
22645;DHT22;11489;50.834;6.752;2023-07-13T15:27:45;27.20;38.60
22645;DHT22;11489;50.834;6.752;2023-07-13T15:30:12;27.10;38.80
22645;DHT22;11489;50.834;6.752;2023-07-13T15:32:38;26.90;38.80
22645;DHT22;11489;50.834;6.752;2023-07-13T15:35:08;26.80;39.10
22645;DHT22;11489;50.834;6.752;2023-07-13T15:37:38;26.60;39.00
22645;DHT22;11489;50.834;6.752;2023-07-13T15:40:04;26.50;39.10
22645;DHT22;11489;50.834;6.752;2023-07-13T15:42:30;26.30;39.20
22645;DHT22;11489;50.834;6.752;2023-07-13T15:44:56;26.10;39.20
22645;DHT22;11489;50.834;6.752;2023-07-13T15:47:21;25.90;39.40
22645;DHT22;11489;50.834;6.752;2023-07-13T15:49:47;25.80;39.70
22645;DHT22;11489;50.834;6.752;2023-07-13T15:52:22;25.70;39.80
22645;DHT22;11489;50.834;6.752;2023-07-13T15:54:49;25.50;40.00
22645;DHT22;11489;50.834;6.752;2023-07-13T15:57:16;25.40;40.20
22645;DHT22;11489;50.834;6.752;2023-07-13T15:59:42;25.20;40.50
22645;DHT22;11489;50.834;6.752;2023-07-13T16:02:16;25.00;41.10
22645;DHT22;11489;50.834;6.752;2023-07-13T16:04:43;24.70;41.60
22645;DHT22;11489;50.834;6.752;2023-07-13T16:07:10;24.40;42.40
22645;DHT22;11489;50.834;6.752;2023-07-13T16:09:36;24.10;42.60
22645;DHT22;11489;50.834;6.752;2023-07-13T16:12:03;23.80;43.20
22645;DHT22;11489;50.834;6.752;2023-07-13T16:14:29;23.50;44.00
22645;DHT22;11489;50.834;6.752;2023-07-13T16:16:54;23.30;44.20